Terminal Aerodrome Forecast
Issued by NWS Cleveland, OH

Home | Current Version | Previous Version | Text Only | Print | Product List | Glossary On
Versions: 1 2 3 4 5 6 7 8 9 10 11 12 13 14 15 16 17 18
719
FTUS41 KCLE 011740
TAFERI
TAF
KERI 011740Z 0118/0218 11007KT P6SM BKN020
     FM012000 09007KT P6SM VCSH BKN035
     FM020100 18004KT P6SM BKN050
     FM020600 18004KT 6SM -SHRA OVC025
     FM021100 18004KT 5SM BR SCT015
     FM021400 22006KT P6SM BKN015=

USA.gov is the U.S. government's official web portal to all federal, state and local government web resources and services.